sensor_id;sensor_type;location;lat;lon;timestamp;P1;P2;P0
77692;PMS5003;66984;47.404;18.836;2023-03-02T00:00:07;38.00;30.00;19.25
77692;PMS5003;66984;47.404;18.836;2023-03-02T00:01:17;36.75;31.00;19.50
77692;PMS5003;66984;47.404;18.836;2023-03-02T00:02:20;38.75;31.00;20.00
77692;PMS5003;66984;47.404;18.836;2023-03-02T00:03:23;37.00;31.00;20.00
77692;PMS5003;66984;47.404;18.836;2023-03-02T00:04:37;37.00;31.00;20.00
77692;PMS5003;66984;47.404;18.836;2023-03-02T00:05:46;37.00;31.50;20.00
77692;PMS5003;66984;47.404;18.836;2023-03-02T00:06:49;37.00;31.00;20.00
77692;PMS5003;66984;47.404;18.836;2023-03-02T00:07:54;36.25;31.00;20.50
77692;PMS5003;66984;47.404;18.836;2023-03-02T00:08:59;38.00;32.00;21.00
77692;PMS5003;66984;47.404;18.836;2023-03-02T00:10:03;39.00;32.00;20.00
77692;PMS5003;66984;47.404;18.836;2023-03-02T00:11:06;36.25;30.25;20.00
77692;PMS5003;66984;47.404;18.836;2023-03-02T00:12:10;38.00;32.00;20.00
77692;PMS5003;66984;47.404;18.836;2023-03-02T00:13:14;38.00;32.00;21.00
77692;PMS5003;66984;47.404;18.836;2023-03-02T00:14:16;39.00;32.00;21.00
77692;PMS5003;66984;47.404;18.836;2023-03-02T00:15:20;38.00;31.00;19.75
77692;PMS5003;66984;47.404;18.836;2023-03-02T00:16:23;37.25;30.75;19.00
77692;PMS5003;66984;47.404;18.836;2023-03-02T00:17:26;37.00;31.00;19.00
77692;PMS5003;66984;47.404;18.836;2023-03-02T00:18:29;36.00;30.00;19.75
77692;PMS5003;66984;47.404;18.836;2023-03-02T00:19:32;36.00;30.00;20.00
77692;PMS5003;66984;47.404;18.836;2023-03-02T00:20:35;35.50;30.00;19.00
77692;PMS5003;66984;47.404;18.836;2023-03-02T00:21:38;36.00;29.00;19.00
77692;PMS5003;66984;47.404;18.836;2023-03-02T00:22:42;37.25;30.50;18.50
77692;PMS5003;66984;47.404;18.836;2023-03-02T00:23:46;36.00;30.00;19.00
77692;PMS5003;66984;47.404;18.836;2023-03-02T00:24:49;36.00;29.00;19.00
77692;PMS5003;66984;47.404;18.836;2023-03-02T00:25:52;35.50;28.50;19.00
77692;PMS5003;66984;47.404;18.836;2023-03-02T00:26:55;37.00;30.00;19.00
77692;PMS5003;66984;47.404;18.836;2023-03-02T00:27:57;35.50;30.00;19.00
77692;PMS5003;66984;47.404;18.836;2023-03-02T00:29:00;35.50;30.00;19.00
77692;PMS5003;66984;47.404;18.836;2023-03-02T00:30:03;35.00;30.00;18.00
77692;PMS5003;66984;47.404;18.836;2023-03-02T00:31:07;35.50;29.00;19.00
77692;PMS5003;66984;47.404;18.836;2023-03-02T00:32:10;35.75;29.50;19.50
77692;PMS5003;66984;47.404;18.836;2023-03-02T00:33:16;35.00;30.00;19.00
77692;PMS5003;66984;47.404;18.836;2023-03-02T00:34:18;35.50;29.75;19.00
77692;PMS5003;66984;47.404;18.836;2023-03-02T00:35:21;34.00;28.50;19.00
77692;PMS5003;66984;47.404;18.836;2023-03-02T00:36:24;35.00;29.00;19.00
77692;PMS5003;66984;47.404;18.836;2023-03-02T00:37:27;35.00;28.50;18.00
77692;PMS5003;66984;47.404;18.836;2023-03-02T00:38:29;34.00;28.50;18.00
77692;PMS5003;66984;47.404;18.836;2023-03-02T00:39:32;35.00;28.50;18.00
77692;PMS5003;66984;47.404;18.836;2023-03-02T00:40:35;34.50;28.50;18.00
77692;PMS5003;66984;47.404;18.836;2023-03-02T00:41:37;35.50;29.00;18.25
77692;PMS5003;66984;47.404;18.836;2023-03-02T00:42:40;35.50;29.00;18.00
77692;PMS5003;66984;47.404;18.836;2023-03-02T00:43:43;35.50;29.00;18.00
77692;PMS5003;66984;47.404;18.836;2023-03-02T00:44:45;34.75;29.00;19.00
77692;PMS5003;66984;47.404;18.836;2023-03-02T00:45:48;34.00;29.00;19.00
77692;PMS5003;66984;47.404;18.836;2023-03-02T00:46:51;34.50;28.50;18.00
77692;PMS5003;66984;47.404;18.836;2023-03-02T00:47:54;32.50;28.00;18.00
77692;PMS5003;66984;47.404;18.836;2023-03-02T00:48:57;34.00;29.00;19.00
77692;PMS5003;66984;47.404;18.836;2023-03-02T00:50:00;33.00;27.00;18.00
77692;PMS5003;66984;47.404;18.836;2023-03-02T00:51:03;33.00;27.00;17.00
77692;PMS5003;66984;47.404;18.836;2023-03-02T00:52:07;32.25;27.75;17.00
77692;PMS5003;66984;47.404;18.836;2023-03-02T00:53:09;32.00;28.00;18.00
77692;PMS5003;66984;47.404;18.836;2023-03-02T00:54:12;32.00;27.00;18.00
77692;PMS5003;66984;47.404;18.836;2023-03-02T00:55:15;30.50;26.00;17.25
77692;PMS5003;66984;47.404;18.836;2023-03-02T00:56:18;32.00;27.00;18.00
77692;PMS5003;66984;47.404;18.836;2023-03-02T00:57:20;35.00;28.50;18.00
77692;PMS5003;66984;47.404;18.836;2023-03-02T00:58:24;33.00;28.50;17.00
77692;PMS5003;66984;47.404;18.836;2023-03-02T00:59:28;34.00;28.50;18.00
77692;PMS5003;66984;47.404;18.836;2023-03-02T01:00:31;34.50;29.00;18.25
77692;PMS5003;66984;47.404;18.836;2023-03-02T01:01:36;35.25;30.75;19.00
77692;PMS5003;66984;47.404;18.836;2023-03-02T01:02:38;37.00;31.00;19.00
77692;PMS5003;66984;47.404;18.836;2023-03-02T01:03:45;38.00;31.00;19.00
77692;PMS5003;66984;47.404;18.836;2023-03-02T01:04:48;37.50;31.00;19.00
77692;PMS5003;66984;47.404;18.836;2023-03-02T01:05:50;40.00;31.00;20.00
77692;PMS5003;66984;47.404;18.836;2023-03-02T01:06:57;38.00;31.00;20.00
77692;PMS5003;66984;47.404;18.836;2023-03-02T01:08:00;35.00;29.00;19.00
77692;PMS5003;66984;47.404;18.836;2023-03-02T01:09:03;35.00;29.00;19.00
77692;PMS5003;66984;47.404;18.836;2023-03-02T01:10:06;32.00;27.50;17.00
77692;PMS5003;66984;47.404;18.836;2023-03-02T01:11:13;31.00;27.00;17.00
77692;PMS5003;66984;47.404;18.836;2023-03-02T01:12:18;31.00;27.00;17.00
77692;PMS5003;66984;47.404;18.836;2023-03-02T01:13:21;28.50;25.50;16.00
77692;PMS5003;66984;47.404;18.836;2023-03-02T01:14:24;29.75;26.00;15.50
77692;PMS5003;66984;47.404;18.836;2023-03-02T01:15:27;31.50;27.00;16.75
77692;PMS5003;66984;47.404;18.836;2023-03-02T01:16:31;31.00;27.00;17.00
77692;PMS5003;66984;47.404;18.836;2023-03-02T01:17:35;31.00;27.00;17.00
77692;PMS5003;66984;47.404;18.836;2023-03-02T01:18:38;31.00;27.00;16.00
77692;PMS5003;66984;47.404;18.836;2023-03-02T01:19:40;34.00;28.00;16.00
77692;PMS5003;66984;47.404;18.836;2023-03-02T01:20:43;34.00;28.00;17.00
77692;PMS5003;66984;47.404;18.836;2023-03-02T01:21:46;34.00;27.00;17.00
77692;PMS5003;66984;47.404;18.836;2023-03-02T01:22:49;33.75;27.00;17.00
77692;PMS5003;66984;47.404;18.836;2023-03-02T01:23:52;33.50;28.00;17.00
77692;PMS5003;66984;47.404;18.836;2023-03-02T01:24:55;32.00;27.00;17.25
77692;PMS5003;66984;47.404;18.836;2023-03-02T01:25:57;34.00;28.00;18.00
77692;PMS5003;66984;47.404;18.836;2023-03-02T01:27:00;34.00;28.00;18.00
77692;PMS5003;66984;47.404;18.836;2023-03-02T01:28:03;32.25;27.75;17.00
77692;PMS5003;66984;47.404;18.836;2023-03-02T01:29:06;33.00;28.00;17.00
77692;PMS5003;66984;47.404;18.836;2023-03-02T01:30:09;34.50;29.00;18.00
77692;PMS5003;66984;47.404;18.836;2023-03-02T01:31:12;34.00;28.00;18.00
77692;PMS5003;66984;47.404;18.836;2023-03-02T01:32:15;34.50;28.00;18.00
77692;PMS5003;66984;47.404;18.836;2023-03-02T01:33:17;34.00;27.00;18.00
77692;PMS5003;66984;47.404;18.836;2023-03-02T01:34:20;32.75;27.00;18.00
77692;PMS5003;66984;47.404;18.836;2023-03-02T01:35:23;29.75;26.00;17.50
77692;PMS5003;66984;47.404;18.836;2023-03-02T01:36:25;31.00;26.50;17.00
77692;PMS5003;66984;47.404;18.836;2023-03-02T01:37:28;31.00;26.00;17.00
77692;PMS5003;66984;47.404;18.836;2023-03-02T01:38:31;30.75;26.00;16.25
77692;PMS5003;66984;47.404;18.836;2023-03-02T01:39:34;31.00;27.00;17.00
77692;PMS5003;66984;47.404;18.836;2023-03-02T01:40:36;32.00;27.00;16.25
77692;PMS5003;66984;47.404;18.836;2023-03-02T01:41:39;31.00;26.00;17.00
77692;PMS5003;66984;47.404;18.836;2023-03-02T01:42:45;31.00;26.75;17.00
77692;PMS5003;66984;47.404;18.836;2023-03-02T01:43:53;28.00;24.50;16.00
77692;PMS5003;66984;47.404;18.836;2023-03-02T01:44:56;29.00;25.50;16.00
77692;PMS5003;66984;47.404;18.836;2023-03-02T01:47:15;28.00;24.50;16.00
77692;PMS5003;66984;47.404;18.836;2023-03-02T01:48:25;28.00;25.00;16.00
77692;PMS5003;66984;47.404;18.836;2023-03-02T01:49:32;31.00;26.50;16.00
77692;PMS5003;66984;47.404;18.836;2023-03-02T01:50:38;30.00;27.00;16.00
77692;PMS5003;66984;47.404;18.836;2023-03-02T01:51:42;30.00;26.00;16.00
77692;PMS5003;66984;47.404;18.836;2023-03-02T01:52:48;28.25;25.25;16.00
77692;PMS5003;66984;47.404;18.836;2023-03-02T01:53:55;30.00;26.00;17.00
77692;PMS5003;66984;47.404;18.836;2023-03-02T01:55:03;30.00;27.00;17.00
77692;PMS5003;66984;47.404;18.836;2023-03-02T01:56:09;29.00;25.25;16.00
77692;PMS5003;66984;47.404;18.836;2023-03-02T01:57:12;28.00;25.00;16.00
77692;PMS5003;66984;47.404;18.836;2023-03-02T01:58:15;31.00;25.25;16.00
77692;PMS5003;66984;47.404;18.836;2023-03-02T01:59:19;30.00;25.00;16.00
77692;PMS5003;66984;47.404;18.836;2023-03-02T02:00:26;30.50;26.00;16.00
77692;PMS5003;66984;47.404;18.836;2023-03-02T02:01:33;28.00;24.50;15.00
77692;PMS5003;66984;47.404;18.836;2023-03-02T02:02:38;26.50;24.00;15.00
77692;PMS5003;66984;47.404;18.836;2023-03-02T02:03:44;30.00;25.00;15.50
77692;PMS5003;66984;47.404;18.836;2023-03-02T02:04:49;31.50;26.75;16.00
77692;PMS5003;66984;47.404;18.836;2023-03-02T02:06:05;28.50;25.00;16.00
77692;PMS5003;66984;47.404;18.836;2023-03-02T02:07:14;27.00;24.00;15.00
77692;PMS5003;66984;47.404;18.836;2023-03-02T02:08:17;27.00;24.00;15.00
77692;PMS5003;66984;47.404;18.836;2023-03-02T02:09:20;24.75;23.25;15.00
77692;PMS5003;66984;47.404;18.836;2023-03-02T02:10:27;28.50;25.50;15.00
77692;PMS5003;66984;47.404;18.836;2023-03-02T02:11:30;27.75;24.00;16.00
77692;PMS5003;66984;47.404;18.836;2023-03-02T02:12:33;27.50;24.00;15.00
77692;PMS5003;66984;47.404;18.836;2023-03-02T02:13:35;27.00;24.00;15.00
77692;PMS5003;66984;47.404;18.836;2023-03-02T02:14:38;26.00;24.00;15.00
77692;PMS5003;66984;47.404;18.836;2023-03-02T02:15:42;26.00;24.00;15.00
77692;PMS5003;66984;47.404;18.836;2023-03-02T02:16:45;27.50;24.00;16.00
77692;PMS5003;66984;47.404;18.836;2023-03-02T02:17:48;27.00;24.00;16.00
77692;PMS5003;66984;47.404;18.836;2023-03-02T02:18:52;27.50;24.50;16.00
77692;PMS5003;66984;47.404;18.836;2023-03-02T02:21:24;26.00;24.00;15.00
77692;PMS5003;66984;47.404;18.836;2023-03-02T02:25:35;25.00;23.50;15.00
77692;PMS5003;66984;47.404;18.836;2023-03-02T02:27:03;26.50;23.50;14.50
77692;PMS5003;66984;47.404;18.836;2023-03-02T02:28:06;25.00;24.00;15.00
77692;PMS5003;66984;47.404;18.836;2023-03-02T02:29:16;24.00;22.25;14.00
77692;PMS5003;66984;47.404;18.836;2023-03-02T02:30:24;23.50;21.25;15.00
77692;PMS5003;66984;47.404;18.836;2023-03-02T02:31:31;24.00;22.00;13.00
77692;PMS5003;66984;47.404;18.836;2023-03-02T02:32:38;24.00;22.00;14.25
77692;PMS5003;66984;47.404;18.836;2023-03-02T02:33:44;25.00;22.00;15.00
77692;PMS5003;66984;47.404;18.836;2023-03-02T02:34:58;24.50;22.75;15.00
77692;PMS5003;66984;47.404;18.836;2023-03-02T02:36:17;24.25;24.00;14.00
77692;PMS5003;66984;47.404;18.836;2023-03-02T02:38:39;26.00;24.00;15.00
77692;PMS5003;66984;47.404;18.836;2023-03-02T02:39:44;25.00;24.00;15.00
77692;PMS5003;66984;47.404;18.836;2023-03-02T02:42:02;25.00;23.75;15.00
77692;PMS5003;66984;47.404;18.836;2023-03-02T02:43:08;26.00;23.00;15.00
77692;PMS5003;66984;47.404;18.836;2023-03-02T02:44:16;25.00;23.00;15.00
77692;PMS5003;66984;47.404;18.836;2023-03-02T02:45:23;25.00;22.00;14.00
77692;PMS5003;66984;47.404;18.836;2023-03-02T02:46:27;24.75;22.00;15.00
77692;PMS5003;66984;47.404;18.836;2023-03-02T02:47:31;24.00;22.00;15.00
77692;PMS5003;66984;47.404;18.836;2023-03-02T02:48:33;24.50;23.00;15.00
77692;PMS5003;66984;47.404;18.836;2023-03-02T02:49:37;25.00;22.00;15.00
77692;PMS5003;66984;47.404;18.836;2023-03-02T02:50:41;24.50;22.75;15.00
77692;PMS5003;66984;47.404;18.836;2023-03-02T02:51:45;25.50;24.00;15.00
77692;PMS5003;66984;47.404;18.836;2023-03-02T02:52:48;27.75;24.50;15.00
77692;PMS5003;66984;47.404;18.836;2023-03-02T02:53:57;26.25;24.00;15.00
77692;PMS5003;66984;47.404;18.836;2023-03-02T02:55:04;24.50;22.00;14.00
77692;PMS5003;66984;47.404;18.836;2023-03-02T02:56:07;24.50;22.00;14.00
77692;PMS5003;66984;47.404;18.836;2023-03-02T02:57:12;24.00;23.00;13.25
77692;PMS5003;66984;47.404;18.836;2023-03-02T02:59:26;25.00;22.00;14.00
77692;PMS5003;66984;47.404;18.836;2023-03-02T03:00:32;23.50;21.00;13.00
77692;PMS5003;66984;47.404;18.836;2023-03-02T03:01:35;22.00;21.00;15.00
77692;PMS5003;66984;47.404;18.836;2023-03-02T03:02:39;21.50;21.00;15.00
77692;PMS5003;66984;47.404;18.836;2023-03-02T03:03:56;22.00;21.00;15.00
77692;PMS5003;66984;47.404;18.836;2023-03-02T03:05:03;21.00;21.00;14.00
77692;PMS5003;66984;47.404;18.836;2023-03-02T03:06:07;21.50;20.00;14.00
77692;PMS5003;66984;47.404;18.836;2023-03-02T03:07:22;24.00;22.00;15.00
77692;PMS5003;66984;47.404;18.836;2023-03-02T03:10:09;23.50;23.00;14.50
77692;PMS5003;66984;47.404;18.836;2023-03-02T03:11:22;22.25;21.75;13.50
77692;PMS5003;66984;47.404;18.836;2023-03-02T03:12:27;23.00;21.25;15.00
77692;PMS5003;66984;47.404;18.836;2023-03-02T03:13:32;23.00;21.25;15.00
77692;PMS5003;66984;47.404;18.836;2023-03-02T03:14:37;24.75;23.75;15.00
77692;PMS5003;66984;47.404;18.836;2023-03-02T03:15:41;24.00;23.00;15.00
77692;PMS5003;66984;47.404;18.836;2023-03-02T03:16:45;24.25;23.50;15.00
77692;PMS5003;66984;47.404;18.836;2023-03-02T03:17:52;24.00;24.00;15.00
77692;PMS5003;66984;47.404;18.836;2023-03-02T03:18:58;26.00;24.00;15.75
77692;PMS5003;66984;47.404;18.836;2023-03-02T03:20:07;25.00;24.00;15.00
77692;PMS5003;66984;47.404;18.836;2023-03-02T03:21:10;25.00;23.00;15.00
77692;PMS5003;66984;47.404;18.836;2023-03-02T03:22:14;26.75;23.50;15.00
77692;PMS5003;66984;47.404;18.836;2023-03-02T03:23:17;28.25;24.00;15.00
77692;PMS5003;66984;47.404;18.836;2023-03-02T03:24:20;25.25;23.25;15.00
77692;PMS5003;66984;47.404;18.836;2023-03-02T03:25:24;23.00;22.00;14.25
77692;PMS5003;66984;47.404;18.836;2023-03-02T03:26:27;25.00;24.00;15.00
77692;PMS5003;66984;47.404;18.836;2023-03-02T03:27:31;26.00;24.00;15.00
77692;PMS5003;66984;47.404;18.836;2023-03-02T03:28:33;26.00;24.00;14.00
77692;PMS5003;66984;47.404;18.836;2023-03-02T03:29:38;24.75;22.50;14.00
77692;PMS5003;66984;47.404;18.836;2023-03-02T03:30:41;25.00;22.00;14.00
77692;PMS5003;66984;47.404;18.836;2023-03-02T03:31:44;24.00;22.00;13.00
77692;PMS5003;66984;47.404;18.836;2023-03-02T03:32:47;23.00;21.00;13.00
77692;PMS5003;66984;47.404;18.836;2023-03-02T03:33:50;24.00;22.25;14.75
77692;PMS5003;66984;47.404;18.836;2023-03-02T03:34:53;27.00;24.00;15.00
77692;PMS5003;66984;47.404;18.836;2023-03-02T03:35:55;26.00;24.00;15.00
77692;PMS5003;66984;47.404;18.836;2023-03-02T03:36:58;27.50;23.75;15.00
77692;PMS5003;66984;47.404;18.836;2023-03-02T03:38:03;25.50;24.00;15.00
77692;PMS5003;66984;47.404;18.836;2023-03-02T03:39:07;24.00;23.00;14.00
77692;PMS5003;66984;47.404;18.836;2023-03-02T03:40:10;24.00;22.00;15.00
77692;PMS5003;66984;47.404;18.836;2023-03-02T03:41:13;23.00;22.00;14.00
77692;PMS5003;66984;47.404;18.836;2023-03-02T03:42:16;23.00;22.00;15.00
77692;PMS5003;66984;47.404;18.836;2023-03-02T03:43:19;24.00;23.00;15.00
77692;PMS5003;66984;47.404;18.836;2023-03-02T03:44:22;24.00;22.00;15.00
77692;PMS5003;66984;47.404;18.836;2023-03-02T03:45:25;25.00;23.00;15.00
77692;PMS5003;66984;47.404;18.836;2023-03-02T03:46:30;24.50;23.00;15.00
77692;PMS5003;66984;47.404;18.836;2023-03-02T03:47:34;27.00;24.00;15.00
77692;PMS5003;66984;47.404;18.836;2023-03-02T03:48:37;25.00;23.00;15.00
77692;PMS5003;66984;47.404;18.836;2023-03-02T03:49:40;24.50;22.00;15.00
77692;PMS5003;66984;47.404;18.836;2023-03-02T03:50:43;24.50;22.50;15.00
77692;PMS5003;66984;47.404;18.836;2023-03-02T03:51:46;24.00;22.00;15.00
77692;PMS5003;66984;47.404;18.836;2023-03-02T03:52:48;24.00;23.00;15.00
77692;PMS5003;66984;47.404;18.836;2023-03-02T03:53:51;22.00;21.00;15.00
77692;PMS5003;66984;47.404;18.836;2023-03-02T03:55:03;22.50;21.50;13.00
77692;PMS5003;66984;47.404;18.836;2023-03-02T03:56:06;25.75;23.50;15.00
77692;PMS5003;66984;47.404;18.836;2023-03-02T03:57:09;24.50;22.00;14.00
77692;PMS5003;66984;47.404;18.836;2023-03-02T03:58:13;24.00;22.00;15.00
77692;PMS5003;66984;47.404;18.836;2023-03-02T03:59:17;26.00;23.00;15.00
77692;PMS5003;66984;47.404;18.836;2023-03-02T04:00:22;25.00;22.00;14.00
77692;PMS5003;66984;47.404;18.836;2023-03-02T04:01:25;23.00;22.00;15.00
77692;PMS5003;66984;47.404;18.836;2023-03-02T04:02:35;24.00;22.00;15.00
77692;PMS5003;66984;47.404;18.836;2023-03-02T04:03:38;23.75;22.25;15.00
77692;PMS5003;66984;47.404;18.836;2023-03-02T04:04:41;22.00;22.00;15.00
77692;PMS5003;66984;47.404;18.836;2023-03-02T04:05:44;24.00;23.00;15.00
77692;PMS5003;66984;47.404;18.836;2023-03-02T04:06:48;23.00;22.00;15.00
77692;PMS5003;66984;47.404;18.836;2023-03-02T04:07:51;24.00;22.00;14.50
77692;PMS5003;66984;47.404;18.836;2023-03-02T04:08:54;22.75;21.75;14.00
77692;PMS5003;66984;47.404;18.836;2023-03-02T04:09:56;25.00;22.00;15.00
77692;PMS5003;66984;47.404;18.836;2023-03-02T04:11:05;23.50;21.00;14.50
77692;PMS5003;66984;47.404;18.836;2023-03-02T04:12:08;22.50;21.00;14.50
77692;PMS5003;66984;47.404;18.836;2023-03-02T04:13:11;22.00;21.00;14.00
77692;PMS5003;66984;47.404;18.836;2023-03-02T04:14:13;22.00;21.00;14.00
77692;PMS5003;66984;47.404;18.836;2023-03-02T04:15:17;24.00;21.25;13.00
77692;PMS5003;66984;47.404;18.836;2023-03-02T04:16:19;25.50;21.00;13.00
77692;PMS5003;66984;47.404;18.836;2023-03-02T04:17:22;27.00;23.00;14.00
77692;PMS5003;66984;47.404;18.836;2023-03-02T04:18:25;25.50;22.00;13.00
77692;PMS5003;66984;47.404;18.836;2023-03-02T04:19:28;24.25;22.00;13.00
77692;PMS5003;66984;47.404;18.836;2023-03-02T04:20:30;23.00;21.00;14.00
77692;PMS5003;66984;47.404;18.836;2023-03-02T04:21:35;23.00;21.00;15.00
77692;PMS5003;66984;47.404;18.836;2023-03-02T04:22:39;25.00;22.00;14.50
77692;PMS5003;66984;47.404;18.836;2023-03-02T04:23:42;24.00;22.00;14.00
77692;PMS5003;66984;47.404;18.836;2023-03-02T04:24:45;24.00;22.00;15.00
77692;PMS5003;66984;47.404;18.836;2023-03-02T04:25:49;25.50;21.75;14.00
77692;PMS5003;66984;47.404;18.836;2023-03-02T04:26:51;26.00;23.50;15.00
77692;PMS5003;66984;47.404;18.836;2023-03-02T04:27:54;30.00;25.75;15.75
77692;PMS5003;66984;47.404;18.836;2023-03-02T04:28:57;36.00;29.00;17.50
77692;PMS5003;66984;47.404;18.836;2023-03-02T04:30:00;36.00;29.25;18.00
77692;PMS5003;66984;47.404;18.836;2023-03-02T04:31:02;37.00;30.00;19.75
77692;PMS5003;66984;47.404;18.836;2023-03-02T04:32:06;37.50;31.00;21.00
77692;PMS5003;66984;47.404;18.836;2023-03-02T04:33:09;37.00;30.00;20.50
77692;PMS5003;66984;47.404;18.836;2023-03-02T04:34:12;35.00;30.00;19.00
77692;PMS5003;66984;47.404;18.836;2023-03-02T04:35:15;32.50;28.00;17.75
77692;PMS5003;66984;47.404;18.836;2023-03-02T04:36:18;32.00;26.50;17.50
77692;PMS5003;66984;47.404;18.836;2023-03-02T04:37:21;28.75;25.00;16.00
77692;PMS5003;66984;47.404;18.836;2023-03-02T04:38:24;27.00;24.00;16.00
77692;PMS5003;66984;47.404;18.836;2023-03-02T04:39:30;27.00;24.00;16.00
77692;PMS5003;66984;47.404;18.836;2023-03-02T04:40:33;27.50;24.50;16.00
77692;PMS5003;66984;47.404;18.836;2023-03-02T04:41:36;30.00;26.25;16.00
77692;PMS5003;66984;47.404;18.836;2023-03-02T04:42:38;28.00;25.00;17.00
77692;PMS5003;66984;47.404;18.836;2023-03-02T04:43:41;28.50;25.75;16.00
77692;PMS5003;66984;47.404;18.836;2023-03-02T04:44:44;27.00;25.00;16.00
77692;PMS5003;66984;47.404;18.836;2023-03-02T04:45:47;27.00;24.00;16.00
77692;PMS5003;66984;47.404;18.836;2023-03-02T04:46:50;27.00;24.50;15.50
77692;PMS5003;66984;47.404;18.836;2023-03-02T04:47:52;26.00;24.00;16.00
77692;PMS5003;66984;47.404;18.836;2023-03-02T04:48:55;27.00;24.00;16.00
77692;PMS5003;66984;47.404;18.836;2023-03-02T04:49:58;26.50;23.50;16.00
77692;PMS5003;66984;47.404;18.836;2023-03-02T04:51:00;26.50;23.50;14.50
77692;PMS5003;66984;47.404;18.836;2023-03-02T04:52:03;28.00;24.00;14.50
77692;PMS5003;66984;47.404;18.836;2023-03-02T04:53:06;28.25;24.00;15.00
77692;PMS5003;66984;47.404;18.836;2023-03-02T04:54:13;28.25;24.25;16.00
77692;PMS5003;66984;47.404;18.836;2023-03-02T04:55:19;32.00;26.00;16.75
77692;PMS5003;66984;47.404;18.836;2023-03-02T04:56:24;29.00;25.50;16.00
77692;PMS5003;66984;47.404;18.836;2023-03-02T04:57:27;27.00;24.00;15.00
77692;PMS5003;66984;47.404;18.836;2023-03-02T04:58:30;26.00;23.50;16.00
77692;PMS5003;66984;47.404;18.836;2023-03-02T04:59:32;27.00;24.00;16.00
77692;PMS5003;66984;47.404;18.836;2023-03-02T05:00:35;27.75;24.00;15.00
77692;PMS5003;66984;47.404;18.836;2023-03-02T05:01:38;26.00;24.00;15.75
77692;PMS5003;66984;47.404;18.836;2023-03-02T05:02:42;26.50;24.00;15.75
77692;PMS5003;66984;47.404;18.836;2023-03-02T05:03:45;25.00;22.00;15.00
77692;PMS5003;66984;47.404;18.836;2023-03-02T05:04:48;26.00;23.00;14.50
77692;PMS5003;66984;47.404;18.836;2023-03-02T05:05:51;25.00;23.50;15.00
77692;PMS5003;66984;47.404;18.836;2023-03-02T05:06:53;24.50;23.00;14.00
77692;PMS5003;66984;47.404;18.836;2023-03-02T05:07:56;26.50;23.50;14.50
77692;PMS5003;66984;47.404;18.836;2023-03-02T05:09:02;26.50;23.50;14.50
77692;PMS5003;66984;47.404;18.836;2023-03-02T05:10:06;28.00;24.00;15.00
77692;PMS5003;66984;47.404;18.836;2023-03-02T05:11:10;27.00;24.00;16.00
77692;PMS5003;66984;47.404;18.836;2023-03-02T05:12:23;27.00;24.00;15.00
77692;PMS5003;66984;47.404;18.836;2023-03-02T05:13:26;26.00;23.50;15.00
77692;PMS5003;66984;47.404;18.836;2023-03-02T05:14:29;24.75;23.50;14.50
77692;PMS5003;66984;47.404;18.836;2023-03-02T05:15:38;27.25;23.50;14.50
77692;PMS5003;66984;47.404;18.836;2023-03-02T05:16:42;26.00;23.50;14.50
77692;PMS5003;66984;47.404;18.836;2023-03-02T05:17:44;26.50;23.25;14.00
77692;PMS5003;66984;47.404;18.836;2023-03-02T05:18:47;27.25;24.00;14.50
77692;PMS5003;66984;47.404;18.836;2023-03-02T05:19:51;34.00;28.75;17.00
77692;PMS5003;66984;47.404;18.836;2023-03-02T05:20:53;38.50;32.00;20.50
77692;PMS5003;66984;47.404;18.836;2023-03-02T05:21:56;36.00;30.00;18.50
77692;PMS5003;66984;47.404;18.836;2023-03-02T05:23:00;32.75;28.00;17.00
77692;PMS5003;66984;47.404;18.836;2023-03-02T05:24:05;29.00;26.00;17.00
77692;PMS5003;66984;47.404;18.836;2023-03-02T05:25:08;29.00;25.00;16.00
77692;PMS5003;66984;47.404;18.836;2023-03-02T05:26:11;28.00;25.00;16.00
77692;PMS5003;66984;47.404;18.836;2023-03-02T05:27:15;29.00;26.00;15.00
77692;PMS5003;66984;47.404;18.836;2023-03-02T05:28:18;27.25;24.00;16.00
77692;PMS5003;66984;47.404;18.836;2023-03-02T05:29:22;29.00;26.00;16.00
77692;PMS5003;66984;47.404;18.836;2023-03-02T05:30:25;28.00;24.00;16.00
77692;PMS5003;66984;47.404;18.836;2023-03-02T05:32:45;28.75;25.50;16.00
77692;PMS5003;66984;47.404;18.836;2023-03-02T05:33:48;27.50;24.00;15.50
77692;PMS5003;66984;47.404;18.836;2023-03-02T05:34:50;30.00;26.00;16.00
77692;PMS5003;66984;47.404;18.836;2023-03-02T05:35:53;29.00;25.25;16.50
77692;PMS5003;66984;47.404;18.836;2023-03-02T05:36:56;31.00;25.25;17.00
77692;PMS5003;66984;47.404;18.836;2023-03-02T05:37:59;29.00;25.00;17.00
77692;PMS5003;66984;47.404;18.836;2023-03-02T05:39:02;28.75;24.75;16.00
77692;PMS5003;66984;47.404;18.836;2023-03-02T05:40:06;31.00;26.00;16.00
77692;PMS5003;66984;47.404;18.836;2023-03-02T05:41:11;32.50;26.50;17.50
77692;PMS5003;66984;47.404;18.836;2023-03-02T05:42:13;33.00;26.00;17.00
77692;PMS5003;66984;47.404;18.836;2023-03-02T05:43:18;32.50;26.00;17.00
77692;PMS5003;66984;47.404;18.836;2023-03-02T05:44:21;35.00;28.50;17.00
77692;PMS5003;66984;47.404;18.836;2023-03-02T05:45:25;33.00;28.00;17.00
77692;PMS5003;66984;47.404;18.836;2023-03-02T05:46:30;34.25;29.00;17.50
77692;PMS5003;66984;47.404;18.836;2023-03-02T05:47:33;34.00;29.25;17.75
77692;PMS5003;66984;47.404;18.836;2023-03-02T05:48:36;35.00;29.00;17.00
77692;PMS5003;66984;47.404;18.836;2023-03-02T05:49:39;36.00;29.00;17.00
77692;PMS5003;66984;47.404;18.836;2023-03-02T05:50:42;35.00;29.00;17.00
77692;PMS5003;66984;47.404;18.836;2023-03-02T05:51:44;36.50;28.50;17.00
77692;PMS5003;66984;47.404;18.836;2023-03-02T05:52:47;34.75;28.50;17.75
77692;PMS5003;66984;47.404;18.836;2023-03-02T05:53:51;35.00;30.00;19.00
77692;PMS5003;66984;47.404;18.836;2023-03-02T05:54:54;36.00;30.00;19.00
77692;PMS5003;66984;47.404;18.836;2023-03-02T05:55:59;33.00;28.00;17.00
77692;PMS5003;66984;47.404;18.836;2023-03-02T05:57:02;32.00;26.00;17.00
77692;PMS5003;66984;47.404;18.836;2023-03-02T05:58:05;29.00;26.00;16.00
77692;PMS5003;66984;47.404;18.836;2023-03-02T05:59:10;28.00;25.00;15.00
77692;PMS5003;66984;47.404;18.836;2023-03-02T06:00:13;28.25;24.00;14.50
77692;PMS5003;66984;47.404;18.836;2023-03-02T06:01:17;26.00;23.00;16.00
77692;PMS5003;66984;47.404;18.836;2023-03-02T06:02:20;26.25;23.25;15.00
77692;PMS5003;66984;47.404;18.836;2023-03-02T06:03:23;26.00;23.50;14.00
77692;PMS5003;66984;47.404;18.836;2023-03-02T06:04:26;26.00;23.75;14.00
77692;PMS5003;66984;47.404;18.836;2023-03-02T06:05:29;26.00;24.00;14.50
77692;PMS5003;66984;47.404;18.836;2023-03-02T06:06:31;26.75;23.75;14.50